Time;durP1;ratioP1;P1;durP2;ratioP2;P2;SDS_P1;SDS_P2;PMS_P1;PMS_P2;Temp;Humidity;BMP_temperature;BMP_pressure;BME280_temperature;BME280_humidity;BME280_pressure;Samples;Min_cycle;Max_cycle;Signal;HPM_P1;HPM_P2
2023/03/18 00:00:44;;;;;;;;;20.00;19.00;22.10;29.80;;;;;;109753;1255;56200;-69
2023/03/18 00:03:17;;;;;;;;;23.00;20.00;22.00;29.70;;;;;;109944;1255;53966;-69
2023/03/18 00:05:43;;;;;;;;;22.00;21.00;22.00;29.70;;;;;;109728;1255;48991;-70
2023/03/18 00:08:10;;;;;;;;;25.00;22.00;22.00;29.60;;;;;;109801;1255;49304;-71
2023/03/18 00:10:36;;;;;;;;;18.00;16.00;22.00;29.60;;;;;;109747;1255;46757;-72
2023/03/18 00:13:06;;;;;;;;;22.33;19.67;21.90;29.50;;;;;;109919;1261;56843;-70
2023/03/18 00:15:32;;;;;;;;;23.50;20.50;21.90;29.50;;;;;;109775;1255;54677;-69
2023/03/18 00:17:58;;;;;;;;;23.00;19.00;21.90;29.40;;;;;;109748;1260;49507;-69
2023/03/18 00:20:37;;;;;;;;;22.00;20.00;21.90;29.70;;;;;;109765;1256;50034;-69
2023/03/18 00:23:05;;;;;;;;;21.67;20.67;21.90;29.60;;;;;;109975;1260;46305;-68
2023/03/18 00:25:31;;;;;;;;;20.00;18.67;21.90;29.80;;;;;;109804;1255;57414;-69
2023/03/18 00:27:58;;;;;;;;;25.00;23.00;21.90;29.50;;;;;;109793;1256;53768;-69
2023/03/18 00:30:24;;;;;;;;;20.00;18.00;21.90;29.50;;;;;;109852;1260;49817;-69
2023/03/18 00:32:50;;;;;;;;;23.00;19.00;21.80;29.80;;;;;;109980;1259;49180;-72
2023/03/18 00:35:16;;;;;;;;;23.00;20.00;21.80;29.50;;;;;;109743;1255;46845;-70
2023/03/18 00:37:44;;;;;;;;;25.50;24.00;21.80;29.40;;;;;;109777;1260;56937;-70
2023/03/18 00:40:16;;;;;;;;;22.00;19.00;21.80;29.40;;;;;;109743;1255;53241;-71
2023/03/18 00:42:46;;;;;;;;;24.00;19.00;21.70;29.60;;;;;;109950;1259;49480;-71
2023/03/18 00:45:15;;;;;;;;;28.00;25.00;21.70;29.50;;;;;;109763;1255;50325;-71
2023/03/18 00:47:44;;;;;;;;;23.00;22.00;21.70;29.60;;;;;;109694;1261;46842;-71
2023/03/18 00:50:11;;;;;;;;;;;21.70;29.70;;;;;;109753;1260;56590;-71
2023/03/18 00:52:38;;;;;;;;;24.00;22.00;21.60;29.60;;;;;;110085;1255;54361;-70
2023/03/18 00:55:05;;;;;;;;;22.00;20.00;21.60;29.50;;;;;;109721;1259;48352;-71
2023/03/18 00:57:32;;;;;;;;;24.00;22.00;21.60;29.40;;;;;;109773;1260;49088;-70
2023/03/18 00:59:58;;;;;;;;;23.00;21.00;21.60;29.40;;;;;;109761;1255;47170;-70
2023/03/18 01:02:24;;;;;;;;;21.00;19.00;21.60;29.70;;;;;;110028;1255;57109;-71
2023/03/18 01:04:51;;;;;;;;;25.00;19.00;21.50;29.70;;;;;;109812;1257;54207;-71
2023/03/18 01:07:17;;;;;;;;;18.00;16.50;21.50;29.80;;;;;;109793;1259;49843;-70
2023/03/18 01:09:43;;;;;;;;;23.00;19.00;21.40;29.90;;;;;;109931;1255;50475;-70
2023/03/18 01:12:10;;;;;;;;;22.33;19.67;21.40;29.90;;;;;;110220;1255;46614;-70
2023/03/18 01:14:37;;;;;;;;;22.00;19.50;21.30;30.00;;;;;;109885;1260;57120;-70
2023/03/18 01:17:06;;;;;;;;;22.00;18.50;21.30;29.80;;;;;;109851;1259;54351;-70
2023/03/18 01:19:33;;;;;;;;;20.00;19.00;21.30;29.90;;;;;;109754;1255;49999;-70
2023/03/18 01:22:00;;;;;;;;;21.50;20.50;21.20;29.90;;;;;;109959;1260;49444;-70
2023/03/18 01:24:26;;;;;;;;;21.00;18.00;21.20;29.70;;;;;;109694;1262;46251;-70
2023/03/18 01:26:52;;;;;;;;;24.00;21.00;21.20;29.80;;;;;;109708;1259;56885;-70
2023/03/18 01:29:19;;;;;;;;;23.00;20.00;21.20;29.80;;;;;;109769;1257;53343;-70
2023/03/18 01:31:46;;;;;;;;;21.00;20.00;21.20;29.90;;;;;;110017;1255;49051;-69
2023/03/18 01:34:13;;;;;;;;;22.00;20.00;21.20;29.80;;;;;;109711;1255;49311;-69
2023/03/18 01:36:39;;;;;;;;;;;21.20;29.80;;;;;;109762;1261;46918;-71
2023/03/18 01:39:06;;;;;;;;;24.00;22.00;21.20;29.80;;;;;;109809;1259;56087;-71
2023/03/18 01:41:33;;;;;;;;;22.00;16.50;21.20;29.70;;;;;;110020;1255;53892;-69
2023/03/18 01:44:00;;;;;;;;;27.00;26.00;21.20;29.80;;;;;;109716;1255;49133;-69
2023/03/18 01:46:37;;;;;;;;;21.50;18.50;21.20;29.80;;;;;;109750;1260;49897;-69
2023/03/18 01:49:11;;;;;;;;;24.00;21.00;21.20;29.70;;;;;;109821;1260;46117;-69
2023/03/18 01:51:40;;;;;;;;;24.00;20.00;21.10;29.70;;;;;;109905;1261;56210;-70
2023/03/18 01:54:07;;;;;;;;;23.00;19.00;21.10;29.70;;;;;;109762;1259;54179;-68
2023/03/18 01:56:36;;;;;;;;;24.00;21.00;21.10;29.80;;;;;;109674;1259;49685;-70
2023/03/18 01:59:02;;;;;;;;;26.00;24.00;21.10;29.70;;;;;;109688;1261;49961;-70
2023/03/18 02:01:39;;;;;;;;;24.00;21.50;21.10;29.90;;;;;;109903;1257;46915;-70
2023/03/18 02:04:09;;;;;;;;;28.50;23.00;21.00;29.80;;;;;;109691;1262;56479;-70
2023/03/18 02:06:37;;;;;;;;;23.00;22.00;21.00;29.80;;;;;;109733;1255;53369;-70
2023/03/18 02:09:04;;;;;;;;;23.50;20.00;21.00;29.90;;;;;;109759;1255;49430;-70
2023/03/18 02:11:33;;;;;;;;;21.00;20.00;21.00;29.90;;;;;;109904;1261;49601;-70
2023/03/18 02:14:00;;;;;;;;;27.33;21.33;20.90;30.10;;;;;;109770;1256;46454;-71
2023/03/18 02:16:43;;;;;;;;;28.00;22.00;20.90;29.80;;;;;;109739;1259;57055;-70
2023/03/18 02:19:27;;;;;;;;;22.50;21.00;20.90;29.80;;;;;;109797;1257;56000;-70
2023/03/18 02:22:24;;;;;;;;;22.50;19.50;20.90;29.80;;;;;;110035;1259;49466;-70
2023/03/18 02:25:16;;;;;;;;;23.00;21.00;20.80;29.90;;;;;;109545;1255;49229;-70
2023/03/18 02:27:44;;;;;;;;;24.00;23.00;20.80;29.70;;;;;;109715;1258;47352;-70
2023/03/18 02:30:21;;;;;;;;;22.00;21.00;20.80;29.70;;;;;;109701;1257;56069;-69
2023/03/18 02:32:50;;;;;;;;;25.50;23.50;20.80;29.80;;;;;;110032;1256;54902;-70
2023/03/18 02:35:16;;;;;;;;;22.67;21.33;20.80;29.80;;;;;;109722;1257;49356;-70
2023/03/18 02:37:42;;;;;;;;;27.00;24.00;20.70;29.70;;;;;;109730;1257;49638;-69
2023/03/18 02:40:18;;;;;;;;;26.00;24.00;20.70;29.90;;;;;;109775;1255;46305;-72
2023/03/18 02:42:45;;;;;;;;;25.00;23.00;20.70;30.00;;;;;;109954;1257;56422;-72
2023/03/18 02:45:30;;;;;;;;;27.00;26.00;20.70;29.80;;;;;;109951;1260;53943;-72
2023/03/18 02:47:58;;;;;;;;;24.00;22.50;20.70;29.90;;;;;;109801;1260;49380;-72
2023/03/18 02:50:24;;;;;;;;;26.00;22.00;20.70;29.80;;;;;;109839;1255;49965;-73
2023/03/18 02:52:50;;;;;;;;;25.50;23.00;20.60;29.70;;;;;;110040;1260;46410;-72
2023/03/18 02:55:17;;;;;;;;;25.00;23.00;20.60;29.90;;;;;;109873;1260;56939;-71
2023/03/18 02:57:43;;;;;;;;;28.00;24.50;20.60;29.80;;;;;;109862;1255;54337;-70
2023/03/18 03:00:10;;;;;;;;;24.00;23.00;20.60;29.80;;;;;;109815;1258;49662;-72
2023/03/18 03:02:36;;;;;;;;;26.00;24.00;20.50;30.00;;;;;;110208;1255;50117;-72
2023/03/18 03:05:03;;;;;;;;;30.00;27.00;20.40;29.80;;;;;;109802;1255;46664;-73
2023/03/18 03:07:29;;;;;;;;;25.00;22.50;20.40;29.90;;;;;;109899;1255;57250;-72
2023/03/18 03:09:55;;;;;;;;;25.00;24.00;20.30;29.80;;;;;;109928;1259;54864;-70
2023/03/18 03:12:22;;;;;;;;;24.33;22.00;20.40;30.00;;;;;;110053;1257;49437;-72
2023/03/18 03:14:48;;;;;;;;;25.00;22.00;20.30;29.80;;;;;;109744;1259;49664;-72
2023/03/18 03:17:15;;;;;;;;;31.00;27.00;20.40;30.00;;;;;;109761;1256;46225;-73
2023/03/18 03:19:41;;;;;;;;;24.50;21.50;20.30;29.70;;;;;;109962;1259;56484;-70
2023/03/18 03:22:08;;;;;;;;;27.00;24.00;20.30;29.80;;;;;;110137;1255;54306;-71
2023/03/18 03:24:34;;;;;;;;;24.50;23.00;20.30;29.80;;;;;;109755;1255;48987;-70
2023/03/18 03:27:00;;;;;;;;;22.00;20.00;20.30;29.70;;;;;;109691;1259;49257;-69
2023/03/18 03:29:26;;;;;;;;;26.50;25.00;20.30;29.80;;;;;;109739;1260;46256;-70
2023/03/18 03:31:52;;;;;;;;;25.00;23.00;20.30;29.70;;;;;;110069;1255;57375;-69
2023/03/18 03:34:19;;;;;;;;;33.00;26.00;20.20;29.80;;;;;;109743;1260;54871;-70
2023/03/18 03:36:45;;;;;;;;;25.00;23.50;20.20;29.70;;;;;;109775;1259;49159;-70
2023/03/18 03:39:12;;;;;;;;;30.00;24.00;20.20;29.80;;;;;;109786;1260;49469;-69
2023/03/18 03:41:38;;;;;;;;;28.00;23.00;20.20;30.00;;;;;;110032;1255;46484;-71
2023/03/18 03:44:05;;;;;;;;;26.50;25.50;20.20;30.00;;;;;;109800;1255;56461;-71
2023/03/18 03:46:31;;;;;;;;;29.00;25.00;20.20;29.80;;;;;;109803;1260;53737;-71
2023/03/18 03:48:57;;;;;;;;;29.50;22.50;20.10;29.80;;;;;;109748;1255;49828;-70
2023/03/18 03:51:24;;;;;;;;;29.00;26.00;20.10;29.70;;;;;;109956;1257;50608;-70
2023/03/18 03:53:50;;;;;;;;;33.00;28.00;20.10;29.70;;;;;;109829;1260;45982;-69
2023/03/18 03:56:16;;;;;;;;;27.00;24.00;20.10;29.80;;;;;;109748;1261;56307;-69
2023/03/18 03:58:43;;;;;;;;;26.00;23.00;20.10;29.70;;;;;;109713;1261;53972;-72
2023/03/18 04:01:10;;;;;;;;;26.00;23.50;20.00;29.70;;;;;;109901;1257;49796;-70
2023/03/18 04:03:36;;;;;;;;;27.50;23.50;20.00;29.70;;;;;;109733;1259;49540;-69
2023/03/18 04:06:03;;;;;;;;;23.50;22.00;20.00;29.70;;;;;;109763;1259;46987;-75
2023/03/18 04:08:30;;;;;;;;;27.00;24.00;20.00;29.70;;;;;;109530;1259;57297;-74
2023/03/18 04:10:56;;;;;;;;;34.67;26.67;20.00;29.70;;;;;;109825;1261;53985;-69
2023/03/18 04:13:23;;;;;;;;;26.00;25.00;19.90;29.70;;;;;;110085;1255;49872;-69
2023/03/18 04:15:50;;;;;;;;;30.00;27.00;20.00;30.10;;;;;;109838;1260;49696;-68
2023/03/18 04:18:17;;;;;;;;;32.00;30.00;20.00;29.70;;;;;;109816;1255;46456;-68
2023/03/18 04:20:43;;;;;;;;;25.00;23.00;19.90;29.70;;;;;;109861;1259;56817;-68
2023/03/18 04:23:09;;;;;;;;;31.50;28.00;19.90;29.70;;;;;;110043;1260;53614;-66
2023/03/18 04:25:35;;;;;;;;;31.00;28.00;19.90;29.80;;;;;;109774;1255;49901;-68
2023/03/18 04:28:02;;;;;;;;;26.50;25.00;19.90;29.70;;;;;;109756;1255;49585;-68
2023/03/18 04:30:29;;;;;;;;;30.67;25.67;19.90;29.90;;;;;;109770;1259;46311;-67
2023/03/18 04:32:55;;;;;;;;;28.00;24.50;19.80;29.70;;;;;;110133;1259;56347;-67
2023/03/18 04:35:22;;;;;;;;;27.00;25.50;19.80;29.70;;;;;;109731;1255;54098;-66
2023/03/18 04:37:48;;;;;;;;;30.50;29.00;19.80;29.70;;;;;;109724;1255;49354;-66
2023/03/18 04:40:15;;;;;;;;;30.00;26.00;19.80;29.70;;;;;;109736;1260;49575;-66
2023/03/18 04:42:44;;;;;;;;;31.00;27.00;19.80;29.80;;;;;;109990;1258;46814;-67
2023/03/18 04:45:11;;;;;;;;;30.00;28.00;19.80;29.90;;;;;;109769;1255;57409;-67
2023/03/18 04:47:37;;;;;;;;;30.00;28.00;19.70;29.70;;;;;;109776;1255;54358;-68
2023/03/18 04:50:04;;;;;;;;;25.00;24.00;19.70;29.70;;;;;;109754;1259;50705;-69
2023/03/18 04:52:30;;;;;;;;;24.00;22.00;19.70;29.70;;;;;;109963;1259;49821;-69
2023/03/18 04:54:57;;;;;;;;;30.67;28.67;19.70;29.70;;;;;;109727;1255;46784;-69
2023/03/18 04:57:23;;;;;;;;;29.00;27.00;19.70;29.60;;;;;;109671;1257;56561;-69
2023/03/18 04:59:50;;;;;;;;;30.00;24.00;19.70;29.90;;;;;;109750;1255;54910;-69
2023/03/18 05:02:16;;;;;;;;;31.00;30.00;19.70;29.70;;;;;;109925;1257;49877;-69
2023/03/18 05:04:43;;;;;;;;;27.50;26.00;19.60;29.80;;;;;;109779;1259;49076;-68
2023/03/18 05:07:14;;;;;;;;;23.00;22.00;19.70;29.70;;;;;;109719;1260;46937;-69
2023/03/18 05:09:40;;;;;;;;;26.00;24.00;19.60;29.80;;;;;;109784;1259;56634;-67
2023/03/18 05:12:14;;;;;;;;;29.50;26.50;19.60;29.70;;;;;;110067;1255;54517;-68
2023/03/18 05:14:42;;;;;;;;;30.50;28.50;19.60;29.70;;;;;;109792;1256;50388;-68
2023/03/18 05:17:14;;;;;;;;;25.00;23.00;19.60;29.70;;;;;;109773;1260;49744;-68
2023/03/18 05:19:45;;;;;;;;;31.00;29.00;19.60;29.80;;;;;;109780;1255;46675;-68
2023/03/18 05:22:14;;;;;;;;;25.00;23.50;19.60;29.90;;;;;;110068;1255;57735;-70
2023/03/18 05:24:41;;;;;;;;;27.50;25.50;19.50;29.70;;;;;;109797;1258;53632;-68
2023/03/18 05:27:12;;;;;;;;;24.00;22.50;19.50;29.70;;;;;;109981;1260;49832;-69
2023/03/18 05:29:39;;;;;;;;;29.00;28.00;19.50;29.90;;;;;;109832;1259;50016;-72
2023/03/18 05:32:07;;;;;;;;;29.00;26.00;19.50;34.00;;;;;;110151;1255;45875;-73
2023/03/18 05:34:35;;;;;;;;;34.00;31.00;19.50;33.90;;;;;;110043;1255;56082;-74
2023/03/18 05:37:03;;;;;;;;;28.00;26.00;19.60;33.50;;;;;;109957;1260;53693;-71
2023/03/18 05:39:31;;;;;;;;;33.00;29.00;19.60;35.80;;;;;;109945;1255;48946;-73
2023/03/18 05:41:58;;;;;;;;;36.00;32.00;19.60;38.50;;;;;;110093;1259;48968;-69
2023/03/18 05:44:24;;;;;;;;;33.00;27.00;19.70;38.80;;;;;;109790;1260;46476;-72
2023/03/18 05:46:51;;;;;;;;;30.00;28.00;19.80;38.70;;;;;;109760;1260;56938;-70
2023/03/18 05:49:22;;;;;;;;;31.00;27.00;19.90;38.90;;;;;;109877;1260;53862;-72
2023/03/18 05:51:49;;;;;;;;;35.00;30.00;20.00;39.00;;;;;;110078;1259;48837;-71
2023/03/18 05:54:16;;;;;;;;;35.00;29.00;20.10;39.10;;;;;;110047;1260;49800;-72
2023/03/18 05:56:44;;;;;;;;;25.00;22.00;20.20;39.50;;;;;;109753;1260;46405;-73
2023/03/18 05:59:13;;;;;;;;;38.00;31.50;20.30;40.00;;;;;;109757;1260;56935;-74
2023/03/18 06:01:40;;;;;;;;;37.67;30.67;20.30;41.10;;;;;;109974;1260;54091;-71
2023/03/18 06:04:07;;;;;;;;;46.00;37.00;20.40;41.50;;;;;;109862;1259;49707;-75
2023/03/18 06:06:36;;;;;;;;;48.00;38.00;20.50;41.60;;;;;;109773;1260;49571;-76
2023/03/18 06:09:03;;;;;;;;;47.00;34.00;20.60;41.70;;;;;;109890;1260;46490;-74
2023/03/18 06:11:29;;;;;;;;;45.00;34.00;20.60;42.10;;;;;;110172;1255;56173;-71
2023/03/18 06:13:55;;;;;;;;;43.00;36.00;20.70;41.90;;;;;;109817;1260;53182;-76
2023/03/18 06:16:22;;;;;;;;;39.00;32.00;20.80;41.80;;;;;;109751;1255;49323;-73
2023/03/18 06:18:48;;;;;;;;;46.00;35.00;20.80;40.70;;;;;;109750;1260;49004;-73
2023/03/18 06:21:15;;;;;;;;;42.00;31.00;20.90;40.60;;;;;;110042;1255;46846;-73
2023/03/18 06:23:42;;;;;;;;;39.00;32.00;20.90;40.50;;;;;;109749;1261;56210;-76
2023/03/18 06:26:08;;;;;;;;;45.33;35.33;21.00;40.10;;;;;;109751;1257;54190;-69
2023/03/18 06:28:35;;;;;;;;;40.00;35.00;21.00;39.50;;;;;;109983;1259;49778;-69
2023/03/18 06:31:01;;;;;;;;;38.00;31.50;21.00;39.30;;;;;;109970;1260;50098;-75
2023/03/18 06:33:28;;;;;;;;;43.00;33.00;20.90;39.00;;;;;;109861;1259;46463;-75
2023/03/18 06:35:55;;;;;;;;;34.00;30.00;20.90;39.30;;;;;;109744;1260;56423;-74
2023/03/18 06:38:21;;;;;;;;;;;20.90;39.20;;;;;;109771;1260;53382;-76
2023/03/18 06:40:47;;;;;;;;;36.00;30.00;20.90;38.80;;;;;;109746;1255;49795;-70
2023/03/18 06:43:14;;;;;;;;;79.00;49.00;20.90;39.00;;;;;;110189;1259;49873;-70
2023/03/18 06:45:40;;;;;;;;;64.00;46.00;21.00;46.00;;;;;;109773;1255;46111;-70
2023/03/18 06:48:09;;;;;;;;;59.00;42.00;21.10;46.50;;;;;;109787;1255;56542;-75
2023/03/18 06:50:38;;;;;;;;;59.50;39.00;21.10;45.50;;;;;;109661;1261;54319;-75
2023/03/18 06:53:05;;;;;;;;;62.00;44.00;21.20;45.40;;;;;;110022;1259;49634;-75
2023/03/18 06:55:32;;;;;;;;;61.00;42.00;21.30;44.50;;;;;;109646;1262;49537;-74
2023/03/18 06:57:58;;;;;;;;;57.00;39.67;21.40;44.50;;;;;;109762;1255;46374;-70
2023/03/18 07:00:25;;;;;;;;;57.00;41.00;21.40;44.80;;;;;;109754;1255;56184;-77
2023/03/18 07:02:51;;;;;;;;;61.00;41.00;21.50;44.10;;;;;;110037;1257;54026;-70
2023/03/18 07:05:19;;;;;;;;;55.00;40.00;21.60;43.70;;;;;;109756;1255;50286;-70
2023/03/18 07:07:47;;;;;;;;;55.00;38.00;21.70;43.30;;;;;;108874;1255;1165526;-69
2023/03/18 07:10:28;;;;;;;;;47.50;34.50;21.70;42.90;;;;;;109809;1255;47406;-70
2023/03/18 07:12:55;;;;;;;;;49.00;35.00;21.80;42.40;;;;;;110176;1258;57174;-69
2023/03/18 07:15:23;;;;;;;;;49.00;35.50;21.80;41.80;;;;;;111853;1259;53899;-70
2023/03/18 07:17:51;;;;;;;;;48.00;35.00;21.90;41.30;;;;;;109834;1255;50286;-70
2023/03/18 07:20:17;;;;;;;;;43.00;32.50;22.10;40.80;;;;;;109823;1260;48944;-69
2023/03/18 07:22:45;;;;;;;;;49.00;35.00;22.10;40.20;;;;;;110106;1256;46792;-70
2023/03/18 07:25:12;;;;;;;;;47.00;34.00;22.20;39.90;;;;;;109780;1256;56528;-70
2023/03/18 07:27:39;;;;;;;;;43.00;33.00;22.20;39.70;;;;;;109820;1260;54976;-70
2023/03/18 07:30:08;;;;;;;;;38.00;30.00;22.10;39.10;;;;;;109812;1255;48963;-70
2023/03/18 07:32:37;;;;;;;;;48.00;37.00;22.10;38.90;;;;;;110124;1255;49257;-70
2023/03/18 07:35:04;;;;;;;;;41.67;33.00;22.10;38.90;;;;;;109749;1261;46316;-69
2023/03/18 07:37:32;;;;;;;;;38.00;33.00;22.10;38.40;;;;;;109644;1259;57525;-69
2023/03/18 07:39:58;;;;;;;;;39.50;31.50;22.10;38.10;;;;;;109681;1259;54161;-70
2023/03/18 07:42:24;;;;;;;;;45.00;35.00;22.10;38.00;;;;;;109671;1255;50049;-70
2023/03/18 07:44:51;;;;;;;;;44.50;34.00;22.00;37.90;;;;;;109626;1255;50685;-70
2023/03/18 07:47:19;;;;;;;;;40.50;31.00;22.00;37.50;;;;;;109655;1255;46772;-70
2023/03/18 07:49:46;;;;;;;;;38.00;31.00;22.00;37.30;;;;;;109687;1255;56688;-69
2023/03/18 07:52:12;;;;;;;;;40.00;32.00;22.00;37.20;;;;;;109996;1258;53468;-70
2023/03/18 07:54:38;;;;;;;;;36.33;32.00;22.00;37.20;;;;;;109719;1255;49803;-70
2023/03/18 07:57:05;;;;;;;;;32.00;26.50;22.00;36.70;;;;;;109602;1259;50094;-70
2023/03/18 07:59:32;;;;;;;;;27.00;22.50;22.10;35.80;;;;;;109582;1257;46805;-69
2023/03/18 08:01:58;;;;;;;;;29.00;21.00;22.10;34.00;;;;;;109634;1260;57461;-69
2023/03/18 08:04:24;;;;;;;;;26.50;20.50;22.00;32.60;;;;;;109580;1259;54537;-69
2023/03/18 08:06:51;;;;;;;;;23.50;21.00;22.00;31.40;;;;;;109587;1260;49967;-69
2023/03/18 08:09:17;;;;;;;;;23.00;18.00;22.00;30.40;;;;;;109677;1255;49655;-69
2023/03/18 08:11:43;;;;;;;;;16.50;15.50;22.00;29.10;;;;;;109700;1260;46221;-70
2023/03/18 08:14:10;;;;;;;;;21.00;16.50;21.90;28.70;;;;;;109641;1257;56288;-69
2023/03/18 08:16:37;;;;;;;;;17.00;14.00;21.90;28.70;;;;;;109640;1259;53490;-69
2023/03/18 08:19:03;;;;;;;;;18.50;14.50;21.90;28.40;;;;;;109774;1257;49724;-68
2023/03/18 08:21:29;;;;;;;;;16.00;14.00;21.90;28.10;;;;;;109773;1260;48920;-69
2023/03/18 08:23:56;;;;;;;;;16.00;14.00;21.90;27.90;;;;;;109834;1255;46812;-70
2023/03/18 08:26:22;;;;;;;;;17.00;15.00;22.00;27.80;;;;;;109846;1259;57150;-69
2023/03/18 08:28:48;;;;;;;;;12.33;11.00;22.00;27.50;;;;;;109723;1256;54001;-68
2023/03/18 08:31:15;;;;;;;;;13.67;12.00;22.00;27.40;;;;;;110239;1256;49299;-69
2023/03/18 08:33:42;;;;;;;;;14.00;12.50;22.00;27.30;;;;;;109891;1258;49202;-68
2023/03/18 08:36:08;;;;;;;;;17.33;12.00;22.10;27.10;;;;;;109743;1260;46255;-69
2023/03/18 08:38:34;;;;;;;;;14.00;12.00;22.10;27.00;;;;;;109565;1260;56587;-68
2023/03/18 08:41:01;;;;;;;;;15.00;11.00;22.20;27.00;;;;;;109678;1260;54056;-69
2023/03/18 08:43:27;;;;;;;;;15.50;13.00;22.20;26.90;;;;;;109621;1260;50145;-70
2023/03/18 08:45:53;;;;;;;;;16.00;12.00;22.20;26.90;;;;;;109616;1256;48900;-69
2023/03/18 08:48:21;;;;;;;;;19.00;14.00;22.20;26.80;;;;;;109627;1260;46861;-69
2023/03/18 08:50:48;;;;;;;;;14.00;12.00;22.20;26.70;;;;;;109758;1260;56331;-67
2023/03/18 08:53:14;;;;;;;;;17.00;13.00;22.30;26.70;;;;;;109834;1255;54464;-68
2023/03/18 08:55:41;;;;;;;;;13.00;11.00;22.30;26.60;;;;;;109752;1259;49127;-68
2023/03/18 08:58:07;;;;;;;;;13.00;12.00;22.30;26.40;;;;;;109565;1255;49562;-67
2023/03/18 09:00:35;;;;;;;;;13.00;11.50;22.30;26.40;;;;;;109607;1261;46613;-68
2023/03/18 09:03:02;;;;;;;;;14.00;13.00;22.30;26.60;;;;;;109803;1256;56662;-68
2023/03/18 09:05:29;;;;;;;;;13.00;12.00;22.40;26.50;;;;;;109917;1255;54366;-68
2023/03/18 09:07:57;;;;;;;;;13.00;11.00;22.40;26.60;;;;;;109922;1258;49568;-69
2023/03/18 09:10:25;;;;;;;;;14.00;11.50;22.50;26.60;;;;;;109782;1260;49020;-69
2023/03/18 09:12:51;;;;;;;;;12.00;9.00;22.40;26.50;;;;;;110192;1255;46726;-68
2023/03/18 09:15:21;;;;;;;;;15.00;13.00;22.50;26.80;;;;;;109828;1258;56489;-69
2023/03/18 09:17:48;;;;;;;;;12.67;11.67;22.60;26.70;;;;;;109938;1259;54218;-68
2023/03/18 09:20:16;;;;;;;;;13.50;12.00;22.70;26.70;;;;;;109624;1255;49527;-69
2023/03/18 09:22:44;;;;;;;;;14.00;11.50;22.70;26.80;;;;;;109816;1260;49130;-69
2023/03/18 09:25:11;;;;;;;;;16.00;15.00;22.70;26.70;;;;;;109910;1255;46104;-69
2023/03/18 09:27:37;;;;;;;;;15.00;13.00;22.80;26.70;;;;;;109931;1255;56560;-68
2023/03/18 09:30:04;;;;;;;;;12.50;11.50;22.80;26.60;;;;;;109850;1256;53783;-68
2023/03/18 09:32:31;;;;;;;;;14.50;12.00;22.80;26.60;;;;;;109907;1255;49683;-68
2023/03/18 09:34:57;;;;;;;;;14.00;12.00;22.90;26.80;;;;;;109706;1255;50568;-69
2023/03/18 09:37:23;;;;;;;;;13.00;11.00;22.90;26.90;;;;;;109736;1255;45907;-73
2023/03/18 09:39:50;;;;;;;;;15.50;13.50;23.00;27.20;;;;;;109806;1255;56658;-70
2023/03/18 09:42:36;;;;;;;;;14.00;13.00;23.00;27.20;;;;;;109780;1260;53760;-69
2023/03/18 09:45:12;;;;;;;;;14.00;12.25;23.10;27.40;;;;;;109732;1255;49045;-69
2023/03/18 09:47:38;;;;;;;;;14.00;12.00;23.10;27.10;;;;;;109824;1257;49805;-69
2023/03/18 09:50:17;;;;;;;;;14.00;12.67;23.20;27.10;;;;;;109830;1255;46223;-70
2023/03/18 09:52:47;;;;;;;;;15.00;13.00;23.30;27.10;;;;;;110024;1260;57219;-69
2023/03/18 09:55:28;;;;;;;;;13.50;12.50;23.30;26.90;;;;;;109656;1261;53918;-69
2023/03/18 09:58:01;;;;;;;;;13.50;12.50;23.30;26.80;;;;;;109838;1260;49037;-71
2023/03/18 10:00:32;;;;;;;;;11.67;10.67;23.40;26.70;;;;;;109889;1260;49593;-70
2023/03/18 10:03:06;;;;;;;;;14.00;12.00;23.50;26.70;;;;;;110046;1260;47173;-69
2023/03/18 10:05:41;;;;;;;;;10.00;9.00;23.50;26.70;;;;;;109867;1255;56751;-68
2023/03/18 10:08:27;;;;;;;;;16.00;12.00;23.60;26.90;;;;;;109696;1255;53944;-68
2023/03/18 10:11:00;;;;;;;;;13.00;11.00;23.60;26.90;;;;;;109884;1259;50006;-69
2023/03/18 10:13:34;;;;;;;;;13.00;11.00;23.70;26.90;;;;;;109672;1261;49075;-68
2023/03/18 10:16:03;;;;;;;;;14.00;11.00;23.70;27.00;;;;;;109591;1260;46308;-68
2023/03/18 10:18:35;;;;;;;;;12.00;11.00;23.80;27.10;;;;;;109608;1260;57872;-68
2023/03/18 10:21:05;;;;;;;;;15.00;13.00;23.80;27.00;;;;;;109923;1255;54627;-69
2023/03/18 10:23:34;;;;;;;;;13.00;12.00;23.80;27.10;;;;;;109788;1255;49698;-69
2023/03/18 10:26:07;;;;;;;;;14.00;12.00;23.90;27.20;;;;;;109870;1255;49201;-68
2023/03/18 10:28:55;;;;;;;;;13.00;11.67;23.90;27.00;;;;;;109754;1257;46668;-69
2023/03/18 10:31:46;;;;;;;;;12.00;11.00;24.00;27.10;;;;;;110237;1255;57026;-69
2023/03/18 10:34:21;;;;;;;;;12.00;11.00;24.00;27.10;;;;;;109945;1260;54434;-69
2023/03/18 10:36:54;;;;;;;;;12.00;11.00;24.00;27.20;;;;;;109801;1260;49737;-69
2023/03/18 10:39:23;;;;;;;;;13.67;11.00;24.00;27.20;;;;;;109697;1260;49402;-69
2023/03/18 10:41:51;;;;;;;;;12.00;10.00;24.10;27.10;;;;;;110089;1260;46710;-69
2023/03/18 10:44:23;;;;;;;;;11.50;10.00;24.10;26.80;;;;;;109721;1258;56833;-68
2023/03/18 10:46:57;;;;;;;;;12.50;11.00;24.10;26.50;;;;;;109587;1255;53642;-69
2023/03/18 10:49:31;;;;;;;;;14.00;12.00;24.10;26.50;;;;;;109619;1259;49202;-68
2023/03/18 10:52:14;;;;;;;;;15.00;12.00;24.10;26.00;;;;;;109628;1262;50270;-68
2023/03/18 10:54:52;;;;;;;;;12.00;11.00;24.10;26.30;;;;;;109595;1260;46868;-68
2023/03/18 10:57:20;;;;;;;;;14.00;12.00;24.20;26.30;;;;;;109642;1258;57466;-69
2023/03/18 10:59:50;;;;;;;;;12.50;11.00;24.20;26.20;;;;;;109765;1255;54805;-69
2023/03/18 11:02:18;;;;;;;;;16.00;13.00;24.10;26.10;;;;;;110179;1260;49507;-69
2023/03/18 11:05:00;;;;;;;;;14.00;11.50;24.10;25.90;;;;;;109655;1258;49178;-69
2023/03/18 11:07:27;;;;;;;;;16.50;13.00;24.10;25.70;;;;;;109840;1259;46550;-69
2023/03/18 11:09:54;;;;;;;;;16.00;13.00;24.20;25.80;;;;;;109790;1260;56488;-69
2023/03/18 11:12:30;;;;;;;;;17.00;14.00;24.20;25.80;;;;;;109933;1260;54227;-68
2023/03/18 11:14:56;;;;;;;;;;;24.20;25.80;;;;;;109785;1260;49525;-68
2023/03/18 11:17:30;;;;;;;;;15.50;14.50;24.20;25.80;;;;;;109739;1260;48036;-68
2023/03/18 11:20:20;;;;;;;;;16.00;14.00;24.20;25.90;;;;;;109672;1260;46078;-69
2023/03/18 11:22:50;;;;;;;;;13.00;12.00;24.20;25.60;;;;;;110108;1257;56480;-69
2023/03/18 11:25:22;;;;;;;;;15.50;12.50;24.20;25.50;;;;;;109801;1257;54180;-69
2023/03/18 11:27:57;;;;;;;;;15.00;13.00;24.20;25.70;;;;;;109823;1260;49403;-69
2023/03/18 11:30:28;;;;;;;;;16.00;15.00;24.20;26.00;;;;;;109711;1259;49194;-71
2023/03/18 11:33:00;;;;;;;;;16.50;15.00;24.20;26.20;;;;;;110053;1255;46802;-71
2023/03/18 11:35:39;;;;;;;;;13.00;12.00;24.20;26.40;;;;;;109635;1255;57686;-71
2023/03/18 11:38:09;;;;;;;;;;;24.30;26.70;;;;;;109713;1261;53889;-71
2023/03/18 11:40:39;;;;;;;;;14.75;13.75;24.30;27.20;;;;;;109738;1261;49099;-71
2023/03/18 11:43:15;;;;;;;;;17.00;13.50;24.30;27.30;;;;;;110145;1257;49779;-72
2023/03/18 11:45:55;;;;;;;;;18.00;14.00;24.30;27.40;;;;;;109712;1257;46968;-71
2023/03/18 11:48:36;;;;;;;;;14.00;12.00;24.40;27.40;;;;;;109691;1255;57298;-72
2023/03/18 11:51:11;;;;;;;;;14.33;12.67;24.40;27.30;;;;;;110004;1255;54628;-73
2023/03/18 11:54:02;;;;;;;;;13.00;12.00;24.40;27.40;;;;;;109723;1261;49704;-72
2023/03/18 11:56:34;;;;;;;;;13.00;11.50;24.40;27.40;;;;;;109757;1259;48958;-72
2023/03/18 11:59:04;;;;;;;;;14.00;12.50;24.40;27.50;;;;;;109762;1255;46469;-73
2023/03/18 12:01:58;;;;;;;;;13.67;12.67;24.40;27.30;;;;;;110048;1255;56710;-72
2023/03/18 12:04:43;;;;;;;;;16.00;14.00;24.40;27.30;;;;;;109812;1257;54418;-76
2023/03/18 12:07:34;;;;;;;;;17.00;13.00;24.40;27.20;;;;;;109778;1257;49596;-73
2023/03/18 12:10:13;;;;;;;;;17.00;14.50;24.40;27.30;;;;;;109782;1260;49657;-72
2023/03/18 12:12:58;;;;;;;;;14.00;13.00;24.40;27.40;;;;;;110125;1256;46142;-71
2023/03/18 12:15:39;;;;;;;;;15.00;14.00;24.40;27.40;;;;;;109786;1255;55981;-71
2023/03/18 12:18:15;;;;;;;;;13.50;12.50;24.40;27.20;;;;;;109823;1259;54189;-70
2023/03/18 12:21:08;;;;;;;;;18.00;15.00;24.40;27.40;;;;;;109820;1255;49175;-71
2023/03/18 12:24:06;;;;;;;;;15.00;12.00;24.40;27.40;;;;;;109780;1256;50167;-71
2023/03/18 12:26:56;;;;;;;;;16.00;15.00;24.40;27.50;;;;;;109787;1255;45957;-72
2023/03/18 12:29:34;;;;;;;;;16.00;15.00;24.40;27.50;;;;;;109814;1259;56468;-72